LVBPM SADF-SADF
Flight info
| Callsign | LVBPM |
|---|---|
| Flight time | 0h 19m |
| Altitude | 1000 |
| Route | LCL |
| Aircraft | B407/L-SDVG/S |
Departure
| Time | 2026-04-27 00:30 |
|---|---|
| Airport | San Fernando Airport (SADF) |
Arrival
| Time | 2026-04-27 00:49 |
|---|---|
| Airport | San Fernando Airport (SADF) |
| Time | Latitude | Longitude | Altitude | Speed | Heading |
|---|---|---|---|---|---|
| 2026-04-27 00:16 | -34.45590 | -58.58475 | 11 ft | 0 kts | 153° |
| 2026-04-27 00:22 | -34.45589 | -58.58476 | 19 ft | 3 kts | 142° |
| 2026-04-27 00:22 | -34.45545 | -58.58429 | 25 ft | 12 kts | 6° |
| 2026-04-27 00:22 | -34.45480 | -58.58370 | 32 ft | 8 kts | 352° |
| 2026-04-27 00:23 | -34.45417 | -58.58335 | 47 ft | 10 kts | 354° |
| 2026-04-27 00:23 | -34.45354 | -58.58319 | 57 ft | 8 kts | 7° |
| 2026-04-27 00:23 | -34.45279 | -58.58297 | 72 ft | 15 kts | 340° |
| 2026-04-27 00:23 | -34.45163 | -58.58217 | 70 ft | 14 kts | 343° |
| 2026-04-27 00:24 | -34.45109 | -58.58213 | 86 ft | 6 kts | 323° |
| 2026-04-27 00:24 | -34.45085 | -58.58212 | 113 ft | 3 kts | 327° |
| 2026-04-27 00:24 | -34.45060 | -58.58208 | 147 ft | 11 kts | 309° |
| 2026-04-27 00:24 | -34.45021 | -58.58213 | 135 ft | 7 kts | 350° |
| 2026-04-27 00:25 | -34.44982 | -58.58241 | 133 ft | 8 kts | 332° |
| 2026-04-27 00:25 | -34.44924 | -58.58263 | 115 ft | 18 kts | 263° |
| 2026-04-27 00:25 | -34.44994 | -58.58314 | 98 ft | 23 kts | 129° |
| 2026-04-27 00:25 | -34.45057 | -58.58192 | 23 ft | 6 kts | 167° |
| 2026-04-27 00:26 | -34.45077 | -58.58175 | 11 ft | 0 kts | 163° |
| 2026-04-27 00:28 | -34.45092 | -58.58155 | 47 ft | 3 kts | 262° |
| 2026-04-27 00:29 | -34.45087 | -58.58179 | 67 ft | 17 kts | 334° |
| 2026-04-27 00:29 | -34.44761 | -58.58198 | 234 ft | 71 kts | 350° |
| 2026-04-27 00:29 | -34.44161 | -58.58031 | 416 ft | 96 kts | 11° |
| 2026-04-27 00:29 | -34.43507 | -58.57951 | 560 ft | 97 kts | 327° |
| 2026-04-27 00:30 | -34.42893 | -58.58319 | 638 ft | 101 kts | 317° |
| 2026-04-27 00:30 | -34.42276 | -58.58737 | 746 ft | 104 kts | 319° |
| 2026-04-27 00:30 | -34.41607 | -58.59209 | 713 ft | 114 kts | 317° |
| 2026-04-27 00:30 | -34.40948 | -58.59743 | 742 ft | 112 kts | 309° |
| 2026-04-27 00:31 | -34.40312 | -58.60308 | 687 ft | 114 kts | 307° |
| 2026-04-27 00:31 | -34.39723 | -58.60934 | 730 ft | 109 kts | 304° |
| 2026-04-27 00:31 | -34.39092 | -58.61468 | 726 ft | 117 kts | 317° |
| 2026-04-27 00:31 | -34.38334 | -58.61867 | 746 ft | 118 kts | 325° |
| 2026-04-27 00:32 | -34.37582 | -58.62257 | 791 ft | 115 kts | 326° |
| 2026-04-27 00:32 | -34.36839 | -58.62694 | 744 ft | 119 kts | 321° |
| 2026-04-27 00:32 | -34.36122 | -58.63192 | 739 ft | 118 kts | 320° |
| 2026-04-27 00:32 | -34.35405 | -58.63695 | 738 ft | 118 kts | 320° |
| 2026-04-27 00:33 | -34.34691 | -58.64194 | 741 ft | 118 kts | 320° |
| 2026-04-27 00:33 | -34.33987 | -58.64689 | 737 ft | 118 kts | 319° |
| 2026-04-27 00:33 | -34.33304 | -58.65235 | 734 ft | 117 kts | 316° |
| 2026-04-27 00:33 | -34.32630 | -58.65786 | 737 ft | 116 kts | 315° |
| 2026-04-27 00:34 | -34.31961 | -58.66328 | 743 ft | 117 kts | 318° |
| 2026-04-27 00:34 | -34.31296 | -58.66889 | 752 ft | 116 kts | 315° |
| 2026-04-27 00:34 | -34.30639 | -58.67442 | 751 ft | 116 kts | 317° |
| 2026-04-27 00:34 | -34.30031 | -58.68073 | 747 ft | 112 kts | 303° |
| 2026-04-27 00:35 | -34.29640 | -58.68861 | 756 ft | 109 kts | 292° |
| 2026-04-27 00:35 | -34.29286 | -58.69677 | 751 ft | 109 kts | 290° |
| 2026-04-27 00:35 | -34.28928 | -58.70492 | 750 ft | 109 kts | 291° |
| 2026-04-27 00:35 | -34.28571 | -58.71305 | 757 ft | 109 kts | 291° |
| 2026-04-27 00:36 | -34.28215 | -58.72116 | 760 ft | 109 kts | 291° |
| 2026-04-27 00:36 | -34.27858 | -58.72933 | 752 ft | 109 kts | 291° |
| 2026-04-27 00:36 | -34.27499 | -58.73754 | 755 ft | 109 kts | 291° |
| 2026-04-27 00:36 | -34.27123 | -58.74556 | 755 ft | 110 kts | 294° |
| 2026-04-27 00:37 | -34.26714 | -58.75346 | 755 ft | 110 kts | 295° |
| 2026-04-27 00:37 | -34.26266 | -58.76018 | 778 ft | 93 kts | 302° |
| 2026-04-27 00:37 | -34.26416 | -58.76449 | 534 ft | 89 kts | 184° |
| 2026-04-27 00:37 | -34.26820 | -58.76039 | 374 ft | 44 kts | 126° |
| 2026-04-27 00:38 | -34.27045 | -58.75855 | 214 ft | 48 kts | 140° |
| 2026-04-27 00:38 | -34.27201 | -58.75691 | 354 ft | 20 kts | 112° |
| 2026-04-27 00:38 | -34.27268 | -58.75516 | 832 ft | 33 kts | 108° |
| 2026-04-27 00:38 | -34.27332 | -58.75302 | 802 ft | 34 kts | 103° |
| 2026-04-27 00:39 | -34.27491 | -58.74969 | 530 ft | 53 kts | 122° |
| 2026-04-27 00:39 | -34.27784 | -58.74665 | 407 ft | 58 kts | 153° |
| 2026-04-27 00:39 | -34.28205 | -58.74411 | 406 ft | 71 kts | 159° |
| 2026-04-27 00:39 | -34.28679 | -58.74184 | 477 ft | 72 kts | 161° |
| 2026-04-27 00:40 | -34.29165 | -58.74003 | 541 ft | 73 kts | 174° |
| 2026-04-27 00:40 | -34.29707 | -58.73851 | 505 ft | 81 kts | 180° |
| 2026-04-27 00:40 | -34.30268 | -58.73740 | 508 ft | 86 kts | 174° |
| 2026-04-27 00:40 | -34.30851 | -58.73642 | 512 ft | 84 kts | 171° |
| 2026-04-27 00:41 | -34.31388 | -58.73512 | 590 ft | 74 kts | 166° |
| 2026-04-27 00:41 | -34.31878 | -58.73392 | 649 ft | 70 kts | 156° |
| 2026-04-27 00:41 | -34.32338 | -58.73191 | 727 ft | 66 kts | 154° |
| 2026-04-27 00:41 | -34.32767 | -58.72910 | 753 ft | 75 kts | 149° |
| 2026-04-27 00:42 | -34.33215 | -58.72552 | 697 ft | 87 kts | 149° |
| 2026-04-27 00:42 | -34.33743 | -58.72064 | 555 ft | 89 kts | 148° |
| 2026-04-27 00:42 | -34.34192 | -58.71631 | 595 ft | 82 kts | 145° |
| 2026-04-27 00:42 | -34.34658 | -58.71245 | 563 ft | 80 kts | 148° |
| 2026-04-27 00:43 | -34.35117 | -58.70903 | 574 ft | 77 kts | 155° |
| 2026-04-27 00:43 | -34.35587 | -58.70604 | 585 ft | 72 kts | 159° |
| 2026-04-27 00:43 | -34.36018 | -58.70297 | 621 ft | 71 kts | 156° |
| 2026-04-27 00:43 | -34.36459 | -58.70062 | 658 ft | 66 kts | 166° |
| 2026-04-27 00:44 | -34.36907 | -58.69866 | 663 ft | 67 kts | 162° |
| 2026-04-27 00:44 | -34.37357 | -58.69688 | 660 ft | 68 kts | 164° |
| 2026-04-27 00:44 | -34.37798 | -58.69474 | 679 ft | 70 kts | 157° |
| 2026-04-27 00:44 | -34.38223 | -58.69229 | 740 ft | 67 kts | 146° |
| 2026-04-27 00:45 | -34.38601 | -58.68731 | 675 ft | 90 kts | 131° |
| 2026-04-27 00:45 | -34.39016 | -58.68147 | 676 ft | 92 kts | 139° |
| 2026-04-27 00:45 | -34.39468 | -58.67627 | 725 ft | 85 kts | 149° |
| 2026-04-27 00:45 | -34.39974 | -58.67223 | 698 ft | 87 kts | 151° |
| 2026-04-27 00:46 | -34.40507 | -58.66869 | 685 ft | 88 kts | 153° |
| 2026-04-27 00:46 | -34.41010 | -58.66479 | 718 ft | 86 kts | 148° |
| 2026-04-27 00:46 | -34.41513 | -58.66049 | 691 ft | 90 kts | 156° |
| 2026-04-27 00:46 | -34.42032 | -58.65691 | 741 ft | 85 kts | 152° |
| 2026-04-27 00:47 | -34.42521 | -58.65335 | 793 ft | 76 kts | 130° |
| 2026-04-27 00:47 | -34.42893 | -58.64879 | 808 ft | 76 kts | 130° |
| 2026-04-27 00:47 | -34.43265 | -58.64338 | 759 ft | 88 kts | 131° |
| 2026-04-27 00:47 | -34.43453 | -58.63720 | 855 ft | 80 kts | 88° |
| 2026-04-27 00:48 | -34.43487 | -58.63005 | 776 ft | 80 kts | 67° |
| 2026-04-27 00:48 | -34.43449 | -58.62461 | 717 ft | 59 kts | 76° |
| 2026-04-27 00:48 | -34.43451 | -58.61896 | 730 ft | 66 kts | 79° |
| 2026-04-27 00:48 | -34.43401 | -58.61369 | 747 ft | 56 kts | 95° |
| 2026-04-27 00:49 | -34.43395 | -58.60904 | 671 ft | 52 kts | 119° |
| 2026-04-27 00:49 | -34.43489 | -58.60510 | 589 ft | 45 kts | 137° |
| 2026-04-27 00:49 | -34.43636 | -58.60204 | 545 ft | 38 kts | 154° |
| 2026-04-27 00:49 | -34.43785 | -58.59972 | 543 ft | 29 kts | 159° |
| 2026-04-27 00:50 | -34.43903 | -58.59805 | 506 ft | 24 kts | 145° |
| 2026-04-27 00:50 | -34.44402 | -58.59312 | 379 ft | 54 kts | 141° |
| 2026-04-27 00:50 | -34.44689 | -58.59056 | 347 ft | 46 kts | 140° |
| 2026-04-27 00:51 | -34.44910 | -58.58791 | 293 ft | 41 kts | 133° |
| 2026-04-27 00:51 | -34.45076 | -58.58581 | 193 ft | 25 kts | 114° |
| 2026-04-27 00:51 | -34.45164 | -58.58487 | 164 ft | 12 kts | 128° |
| 2026-04-27 00:51 | -34.45229 | -58.58412 | 131 ft | 15 kts | 62° |
| 2026-04-27 00:52 | -34.45234 | -58.58258 | 68 ft | 15 kts | 56° |
| 2026-04-27 00:52 | -34.45195 | -58.58158 | 55 ft | 11 kts | 47° |
| 2026-04-27 00:52 | -34.45156 | -58.58112 | 38 ft | 8 kts | 56° |
| 2026-04-27 00:52 | -34.45141 | -58.58075 | 19 ft | 3 kts | 58° |
| 2026-04-27 00:53 | -34.45133 | -58.58057 | 12 ft | 1 kts | 55° |
| 2026-04-27 00:53 | -34.45132 | -58.58056 | 11 ft | 0 kts | 52° |